Auburn, Washington
Current Conditions -  °F | °C
As of 7:53 PM on Wednesday 22 Oct 2014 (Local Time) from KSEA Reporting Station
Light Rain Light Rain  
Wind Chill: 56°   Ceiling: 4300
Heat Index: 56°   Visibility: 10mi
Dew Point: 51°   Wind: 9mph
Humidity: 84%   Direction: 180°S
Pressure: 29.58"   Gusts: NA
Location:  47.31°N, 122.23°W
Report Text: KSEA 230253Z 18008KT 10SM -RA BKN043 OVC050 13/11 A2958 RMK AO2 SLP023 P0001 60009 T01330106 55015
Loading
Personal Weather Stations






























Interactive Weather Map
Tropical Storm Tracking
New forecast layout! Learn more

10-Day Weather Forecast

Advertisements
Track Severe Weather on mobile